Ben-my-chree — MXLG6 — position and weather

sailwx.info

Track history (hours):
 
Tides and Currents Weather Stations Pressure Air Temp Water Temp Dewpoint Dewpoint Depression Visibility Wind Speed Wind Dir Waves Ship Positions

Ben-my-chree

Operator: The Isle of Man Steam Packet Co Ltd

Last reported at 2020-Jan-24 03:20 UTC. Time now 2020-Jan-24 04:26 UTC.
Position N 53°55' W 003°29'.

Length 125 m; draft 5 m.

Type: Ship. MMSI: 234983000.

Date/timePositionNaut miles runAvg speedWind from/ knotsBaromVisibWave heightAir tempDewpointWater temp
2020-Jan-24 03:20N 53°55' W 003°29'1618.6
2020-Jan-24 02:30N 53°58' W 003°03'6 1.9
2020-Jan-23 23:18N 54°02' W 002°55'1914.4
2020-Jan-23 22:01N 53°55' W 003°25'2 0.3
2020-Jan-23 15:18N 53°55' W 003°28'20 6.4
2020-Jan-23 12:08N 54°02' W 002°55'1714.8
2020-Jan-23 11:00N 53°55' W 003°21'1817.8
2020-Jan-23 10:00N 54°00' W 003°50'18 3.6
2020-Jan-23 05:04N 54°08' W 004°17'38 2.7
2020-Jan-22 14:58N 53°55' W 003°17'9 4.9
2020-Jan-22 13:00N 53°58' W 003°02'13 6.3
2020-Jan-22 11:01N 53°55' W 003°23'9 0.4
2020-Jan-21 11:31N 53°56' W 003°08'1717.0
2020-Jan-21 10:31N 53°56' W 003°37'3 0.3
2020-Jan-21 02:57N 53°58' W 003°40'2416.8
2020-Jan-21 01:30N 54°00' W 002°59'3 5.6
2020-Jan-21 00:59N 54°02' W 002°55'11 1.1
2020-Jan-20 15:01N 53°56' W 003°11'11 7.6
2020-Jan-20 13:30N 54°02' W 002°55'1 0.9
2020-Jan-20 12:00N 54°01' W 002°57'1615.8
2020-Jan-20 11:00N 53°56' W 003°22'1 0.2
2020-Jan-20 03:30N 53°56' W 003°24'1616.2
2020-Jan-20 02:30N 54°01' W 002°58'2 2.4
2020-Jan-20 01:30N 54°02' W 002°55'0 0.0
2020-Jan-20 01:00N 54°02' W 002°55'0 0.0
2020-Jan-19 23:30N 54°02' W 002°55'0 0.0
2020-Jan-19 12:59N 54°02' W 002°55'4 2.0
2020-Jan-19 11:00N 53°59' W 003°00'816.5
2020-Jan-19 10:30N 53°56' W 003°13'917.0
2020-Jan-19 10:00N 53°56' W 003°27'3 0.2
2020-Jan-18 15:13N 53°56' W 003°22'516.2
2020-Jan-18 14:54N 53°56' W 003°14'11 0.8
2020-Jan-18 00:00N 54°02' W 002°57'8 0.9
2020-Jan-17 15:01N 53°56' W 003°08'1 0.3
2020-Jan-17 11:30N 53°57' W 003°06'21 2.8
2020-Jan-17 03:57N 53°58' W 003°41'2316.1
2020-Jan-17 02:31N 53°58' W 003°02'5 2.7
2020-Jan-17 00:30N 54°02' W 002°55'0 0.0
2020-Jan-16 14:00N 54°02' W 002°55'0 0.0
2020-Jan-16 13:00N 54°02' W 002°55'0 0.0
2020-Jan-16 12:30N 54°02' W 002°55'3 5.5
2020-Jan-16 12:00N 54°00' W 002°59'1817.6
2020-Jan-16 11:00N 53°56' W 003°27'7 0.9
2020-Jan-16 02:59N 53°56' W 003°16'816.6
2020-Jan-16 02:31N 53°58' W 003°03'6 4.5
2020-Jan-16 01:10N 54°02' W 002°55'0 0.1
2020-Jan-15 23:24N 54°02' W 002°55'1213.8
2020-Jan-15 22:30N 53°55' W 003°13'12 1.2
2020-Jan-15 12:01N 54°02' W 002°55'917.2
2020-Jan-15 11:31N 53°57' W 003°07'13 1.7
2020-Jan-15 03:27N 53°56' W 003°29'1516.4
2020-Jan-15 02:30N 53°58' W 003°03'19 3.7
2020-Jan-14 21:27N 53°57' W 003°35'9 1.4
2020-Jan-14 14:57N 53°56' W 003°20'818.5
2020-Jan-14 14:30N 53°57' W 003°06'8 3.1
2020-Jan-14 12:00N 54°02' W 002°56'1019.7
2020-Jan-14 11:30N 53°56' W 003°09'918.7
2020-Jan-14 11:00N 53°55' W 003°25'  
Track history (hours):
 
Tides and Currents Weather Stations Pressure Air Temp Water Temp Dewpoint Dewpoint Depression Visibility Wind Speed Wind Dir Waves Ship Positions

Ben-my-chree

Operator: The Isle of Man Steam Packet Co Ltd

Last reported at 2020-Jan-24 03:20 UTC. Time now 2020-Jan-24 04:26 UTC.
Position N 53°55' W 003°29'.

Length 125 m; draft 5 m.

Type: Ship. MMSI: 234983000.

Date/timePositionNaut miles runAvg speedWind from/ knotsBaromVisibWave heightAir tempDewpointWater temp
2020-Jan-24 03:20N 53°55' W 003°29'1618.6
2020-Jan-24 02:30N 53°58' W 003°03'6 1.9
2020-Jan-23 23:18N 54°02' W 002°55'1914.4
2020-Jan-23 22:01N 53°55' W 003°25'2 0.3
2020-Jan-23 15:18N 53°55' W 003°28'20 6.4
2020-Jan-23 12:08N 54°02' W 002°55'1714.8
2020-Jan-23 11:00N 53°55' W 003°21'1817.8
2020-Jan-23 10:00N 54°00' W 003°50'18 3.6
2020-Jan-23 05:04N 54°08' W 004°17'38 2.7
2020-Jan-22 14:58N 53°55' W 003°17'9 4.9
2020-Jan-22 13:00N 53°58' W 003°02'13 6.3
2020-Jan-22 11:01N 53°55' W 003°23'9 0.4
2020-Jan-21 11:31N 53°56' W 003°08'1717.0
2020-Jan-21 10:31N 53°56' W 003°37'3 0.3
2020-Jan-21 02:57N 53°58' W 003°40'2416.8
2020-Jan-21 01:30N 54°00' W 002°59'3 5.6
2020-Jan-21 00:59N 54°02' W 002°55'11 1.1
2020-Jan-20 15:01N 53°56' W 003°11'11 7.6
2020-Jan-20 13:30N 54°02' W 002°55'1 0.9
2020-Jan-20 12:00N 54°01' W 002°57'1615.8
2020-Jan-20 11:00N 53°56' W 003°22'1 0.2
2020-Jan-20 03:30N 53°56' W 003°24'1616.2
2020-Jan-20 02:30N 54°01' W 002°58'2 2.4
2020-Jan-20 01:30N 54°02' W 002°55'0 0.0
2020-Jan-20 01:00N 54°02' W 002°55'0 0.0
2020-Jan-19 23:30N 54°02' W 002°55'0 0.0
2020-Jan-19 12:59N 54°02' W 002°55'4 2.0
2020-Jan-19 11:00N 53°59' W 003°00'816.5
2020-Jan-19 10:30N 53°56' W 003°13'917.0
2020-Jan-19 10:00N 53°56' W 003°27'3 0.2
2020-Jan-18 15:13N 53°56' W 003°22'516.2
2020-Jan-18 14:54N 53°56' W 003°14'11 0.8
2020-Jan-18 00:00N 54°02' W 002°57'8 0.9
2020-Jan-17 15:01N 53°56' W 003°08'1 0.3
2020-Jan-17 11:30N 53°57' W 003°06'21 2.8
2020-Jan-17 03:57N 53°58' W 003°41'2316.1
2020-Jan-17 02:31N 53°58' W 003°02'5 2.7
2020-Jan-17 00:30N 54°02' W 002°55'0 0.0
2020-Jan-16 14:00N 54°02' W 002°55'0 0.0
2020-Jan-16 13:00N 54°02' W 002°55'0 0.0
2020-Jan-16 12:30N 54°02' W 002°55'3 5.5
2020-Jan-16 12:00N 54°00' W 002°59'1817.6
2020-Jan-16 11:00N 53°56' W 003°27'7 0.9
2020-Jan-16 02:59N 53°56' W 003°16'816.6
2020-Jan-16 02:31N 53°58' W 003°03'6 4.5
2020-Jan-16 01:10N 54°02' W 002°55'0 0.1
2020-Jan-15 23:24N 54°02' W 002°55'1213.8
2020-Jan-15 22:30N 53°55' W 003°13'12 1.2
2020-Jan-15 12:01N 54°02' W 002°55'917.2
2020-Jan-15 11:31N 53°57' W 003°07'13 1.7
2020-Jan-15 03:27N 53°56' W 003°29'1516.4
2020-Jan-15 02:30N 53°58' W 003°03'19 3.7
2020-Jan-14 21:27N 53°57' W 003°35'9 1.4
2020-Jan-14 14:57N 53°56' W 003°20'818.5
2020-Jan-14 14:30N 53°57' W 003°06'8 3.1
2020-Jan-14 12:00N 54°02' W 002°56'1019.7
2020-Jan-14 11:30N 53°56' W 003°09'918.7
2020-Jan-14 11:00N 53°55' W 003°25'  

Dump ship's entire track history